Thousandsticks, Kentucky
Current Conditions -  °F | °C
As of 11:55 PM on Saturday 20 Dec 2014 (Local Time) from KI35 Reporting Station
Clear Clear  
Wind Chill: 32°   Ceiling: Unl
Heat Index: 32°   Visibility: 10mi
Dew Point: 28°   Wind: 0mph
Humidity: 87%   Direction: NA
Pressure: 30.23"   Gusts: NA
Location:  37.19°N, 83.43°W
Report Text: KI35 210455Z AUTO 00000KT 10SM CLR 00/M02 A3023 RMK AO1
Loading
Personal Weather Stations






























Interactive Weather Map New forecast layout! Learn more

10-Day Weather Forecast

Advertisements
Track Severe Weather on mobile